Aeroporto :
LOGIN :

Iscrizione | Disclaimer

   EN    FR    IT 

 










Sommario :    VFR   VFR Marginale   IFR   IFR Intensivo   IFR Molto Intensivo
Visibilità : 
Base nubi : 
>= 8 km
>= 3000ft
5 / 8 km
1000 / 3000 ft
1500m / 5 km
500 / 1000 ft
800 / 1500m
200 / 500 ft
< 800m
< 200 ft
Simboli :   Temporali  Nebbia  Neve Forte  Precipitazioni Forti  Vento > 20 kt
SIGMETs :   Varie  Temporali  Ghiacco  Turbolenza  Onda orograficha  Ceneri Vulcaniche







- Altitudine del aeroporto : 157 ft
- Codice IATA : LIL
- Carte del aeroporto


LFQQ - Lille Lesquin

ULTIMO METAR :
  • 240630Z AUTO 26007KT CAVOK 13/08 Q1016 NOSIG

METARs OBSOLETI :
  • 240600Z AUTO 22004KT CAVOK 13/08 Q1016 NOSIG
  • 240530Z AUTO 23004KT CAVOK 13/06 Q1016 NOSIG
  • 240500Z AUTO 23003KT CAVOK 13/07 Q1016 NOSIG
  • 240430Z AUTO 22003KT CAVOK 13/08 Q1016 NOSIG
  • 240400Z AUTO 27003KT CAVOK 13/08 Q1015 NOSIG

TAF TAF LFQQ
Valido dal 24 a 06 ore il 25 a 12 ore UTC


240500Z 2406/2512 27005KT CAVOK
BECMG 2412/2414 34010KT
BECMG 2421/2424 VRB02KT
BECMG 2509/2512 30010KT
ATIS : +33 3 20 16 19 54
Nessun NOTAM noto per questo aeroporto.



MetMap, La meteo Aeronautica in un colpo d'occhio ! - Copyright ORBIFLY Dicembre 2007 - Disclaimer

ORBIFLY MET'MAP TEAM :

Programmazione e sviluppo : Alexandra Zaïnal
Concezione e sviluppo : Baudouin d'Aumeries
Co-Programmazione e sviluppo : Marc-Olivier Méhu
Supporto tecnico e logistico : Manuel Goepfert
Aiuto per la traduzione : Arnaldo La Scala

Contatto : metmap@orbifly.com




FONTI E CREDITI :

   NOAA